Time;durP1;ratioP1;P1;durP2;ratioP2;P2;SDS_P1;SDS_P2;PMS_P1;PMS_P2;Temp;Humidity;BMP_temperature;BMP_pressure;BME280_temperature;BME280_humidity;BME280_pressure;Samples;Min_cycle;Max_cycle;Signal;HPM_P1;HPM_P2
2024/02/02 00:00:52;;;;;;;81.38;77.20;;;;;;;;;;5029090;28;20026;-50
2024/02/02 00:03:17;;;;;;;80.18;76.03;;;;;;;;;;5031369;28;20041;-58
2024/02/02 00:05:42;;;;;;;79.72;75.68;;;;;;;;;;5031248;28;20039;-58
2024/02/02 00:08:08;;;;;;;78.18;74.07;;;;;;;;;;5031730;28;20112;-58
2024/02/02 00:10:33;;;;;;;78.20;74.10;;;;;;;;;;5029301;28;20044;-58
2024/02/02 00:12:59;;;;;;;78.70;74.72;;;;;;;;;;5029676;28;20040;-58
2024/02/02 00:15:24;;;;;;;80.85;76.35;;;;;;;;;;5032877;28;20052;-58
2024/02/02 00:17:49;;;;;;;83.30;78.80;;;;;;;;;;5030994;28;20455;-56
2024/02/02 00:20:15;;;;;;;82.45;78.35;;;;;;;;;;5029293;28;20134;-49
2024/02/02 00:22:40;;;;;;;82.93;78.75;;;;;;;;;;5030834;28;20494;-48
2024/02/02 00:25:06;;;;;;;81.35;77.30;;;;;;;;;;5028295;28;20026;-50
2024/02/02 00:27:31;;;;;;;82.43;78.15;;;;;;;;;;5029651;28;20051;-51
2024/02/02 00:29:57;;;;;;;89.53;85.07;;;;;;;;;;5031643;28;20087;-53
2024/02/02 00:32:22;;;;;;;84.93;80.72;;;;;;;;;;5032651;28;20036;-58
2024/02/02 00:34:48;;;;;;;84.35;80.05;;;;;;;;;;5026996;28;20091;-57
2024/02/02 00:37:13;;;;;;;85.78;81.53;;;;;;;;;;5034916;28;20094;-58
2024/02/02 00:39:38;;;;;;;87.28;82.70;;;;;;;;;;5029050;28;20037;-50
2024/02/02 00:42:04;;;;;;;88.63;84.20;;;;;;;;;;5034214;28;20056;-49
2024/02/02 00:44:29;;;;;;;90.90;86.38;;;;;;;;;;5029597;28;20044;-48
2024/02/02 00:46:54;;;;;;;94.38;89.68;;;;;;;;;;5028959;28;20044;-50
2024/02/02 00:49:24;;;;;;;94.07;89.43;;;;;;;;;;5031152;28;20119;-48
2024/02/02 00:51:50;;;;;;;91.93;87.30;;;;;;;;;;5031124;28;20064;-49
2024/02/02 00:54:16;;;;;;;94.70;89.60;;;;;;;;;;5029240;28;20145;-49
2024/02/02 00:56:41;;;;;;;92.72;88.13;;;;;;;;;;5027245;28;20083;-54
2024/02/02 00:59:06;;;;;;;96.70;91.65;;;;;;;;;;5030913;28;20045;-52
2024/02/02 01:01:32;;;;;;;99.55;94.40;;;;;;;;;;5011879;28;20057;-51
2024/02/02 01:03:57;;;;;;;92.65;87.78;;;;;;;;;;5033162;28;20030;-49
2024/02/02 01:06:22;;;;;;;91.85;87.30;;;;;;;;;;5030399;28;20037;-52
2024/02/02 01:08:48;;;;;;;95.82;91.07;;;;;;;;;;5028693;28;20329;-50
2024/02/02 01:11:13;;;;;;;99.57;94.28;;;;;;;;;;5030284;28;20030;-53
2024/02/02 01:13:38;;;;;;;100.72;95.25;;;;;;;;;;5030896;28;20063;-52
2024/02/02 01:16:04;;;;;;;94.90;90.20;;;;;;;;;;5031403;28;20117;-51
2024/02/02 01:18:29;;;;;;;94.70;89.78;;;;;;;;;;5032195;28;20040;-58
2024/02/02 01:20:55;;;;;;;93.15;88.15;;;;;;;;;;5028958;28;20135;-58
2024/02/02 01:23:20;;;;;;;92.70;88.00;;;;;;;;;;5029413;28;20029;-55
2024/02/02 01:25:46;;;;;;;88.45;84.05;;;;;;;;;;5030433;28;20061;-55
2024/02/02 01:28:11;;;;;;;90.03;85.45;;;;;;;;;;5031960;28;20446;-57
2024/02/02 01:30:36;;;;;;;87.30;82.85;;;;;;;;;;5028570;28;20055;-47
2024/02/02 01:33:02;;;;;;;90.38;85.82;;;;;;;;;;5030810;28;20065;-56
2024/02/02 01:35:27;;;;;;;88.00;83.60;;;;;;;;;;5027255;28;20037;-57
2024/02/02 01:37:52;;;;;;;89.50;84.82;;;;;;;;;;5028601;28;20073;-57
2024/02/02 01:40:19;;;;;;;93.13;88.50;;;;;;;;;;5027032;28;20112;-56
2024/02/02 01:42:45;;;;;;;90.25;85.70;;;;;;;;;;5027185;28;20340;-52
2024/02/02 01:45:10;;;;;;;91.57;86.93;;;;;;;;;;5027272;28;20175;-50
2024/02/02 01:47:36;;;;;;;91.53;86.97;;;;;;;;;;5029658;28;20048;-49
2024/02/02 01:50:02;;;;;;;86.53;82.05;;;;;;;;;;5034151;28;20091;-47
2024/02/02 01:52:28;;;;;;;92.80;88.15;;;;;;;;;;5032196;28;20080;-47
2024/02/02 01:54:54;;;;;;;96.85;92.03;;;;;;;;;;5032921;28;20440;-51
2024/02/02 01:57:20;;;;;;;97.10;92.25;;;;;;;;;;5033509;28;20326;-52
2024/02/02 01:59:46;;;;;;;98.50;92.63;;;;;;;;;;5033481;28;20060;-49
2024/02/02 02:02:12;;;;;;;95.60;90.82;;;;;;;;;;5034225;28;20923;-51
2024/02/02 02:04:42;;;;;;;94.28;89.57;;;;;;;;;;5031397;28;20091;-49
2024/02/02 02:07:09;;;;;;;95.45;90.50;;;;;;;;;;5034977;28;20049;-51
2024/02/02 02:09:34;;;;;;;94.82;89.93;;;;;;;;;;5022599;28;20515;-49
2024/02/02 02:12:01;;;;;;;96.82;91.95;;;;;;;;;;5032594;28;20124;-48
2024/02/02 02:14:27;;;;;;;98.13;93.22;;;;;;;;;;5032917;28;20137;-56
2024/02/02 02:16:52;;;;;;;97.28;92.43;;;;;;;;;;5030616;28;20429;-57
2024/02/02 02:19:18;;;;;;;96.00;90.95;;;;;;;;;;5035819;28;20029;-57
2024/02/02 02:21:43;;;;;;;98.20;93.13;;;;;;;;;;5030161;28;20034;-48
2024/02/02 02:24:09;;;;;;;98.35;93.32;;;;;;;;;;5017083;28;20276;-48
2024/02/02 02:26:35;;;;;;;101.10;95.78;;;;;;;;;;5032587;28;20521;-50
2024/02/02 02:29:00;;;;;;;98.28;93.43;;;;;;;;;;5032608;28;20028;-48
2024/02/02 02:31:27;;;;;;;97.53;92.68;;;;;;;;;;5033578;28;20095;-59
2024/02/02 02:33:52;;;;;;;97.18;92.32;;;;;;;;;;5032812;28;20029;-48
2024/02/02 02:36:18;;;;;;;97.97;93.10;;;;;;;;;;5033039;28;20044;-47
2024/02/02 02:38:44;;;;;;;95.82;90.93;;;;;;;;;;5034881;28;20053;-56
2024/02/02 02:41:09;;;;;;;97.30;92.35;;;;;;;;;;5030909;28;20044;-59
2024/02/02 02:43:34;;;;;;;96.13;91.30;;;;;;;;;;5031800;28;20414;-59
2024/02/02 02:46:00;;;;;;;97.72;91.88;;;;;;;;;;5031402;28;20045;-59
2024/02/02 02:48:26;;;;;;;92.75;88.10;;;;;;;;;;5033109;28;20032;-57
2024/02/02 02:50:51;;;;;;;95.65;90.07;;;;;;;;;;5032516;28;20044;-56
2024/02/02 02:53:17;;;;;;;98.13;92.88;;;;;;;;;;5033080;28;20136;-56
2024/02/02 02:55:42;;;;;;;98.68;93.78;;;;;;;;;;5035391;28;20265;-57
2024/02/02 02:58:08;;;;;;;92.30;87.68;;;;;;;;;;5030638;28;20068;-57
2024/02/02 03:00:33;;;;;;;94.88;89.90;;;;;;;;;;5029491;28;20446;-57
2024/02/02 03:02:58;;;;;;;97.93;92.95;;;;;;;;;;5032084;28;20041;-57
2024/02/02 03:05:26;;;;;;;101.88;96.80;;;;;;;;;;5030189;28;20072;-57
2024/02/02 03:07:51;;;;;;;98.13;93.28;;;;;;;;;;5030406;28;20694;-57
2024/02/02 03:10:16;;;;;;;101.95;96.85;;;;;;;;;;5033164;28;20044;-56
2024/02/02 03:12:42;;;;;;;99.45;94.45;;;;;;;;;;5032946;28;20083;-58
2024/02/02 03:15:07;;;;;;;101.00;95.95;;;;;;;;;;5033529;28;20037;-59
2024/02/02 03:17:33;;;;;;;103.13;97.97;;;;;;;;;;5031829;28;20037;-58
2024/02/02 03:19:58;;;;;;;98.53;93.63;;;;;;;;;;5029012;28;20308;-56
2024/02/02 03:22:23;;;;;;;105.45;99.97;;;;;;;;;;5032375;28;20429;-56
2024/02/02 03:24:49;;;;;;;103.03;97.82;;;;;;;;;;5035797;28;20789;-57
2024/02/02 03:27:14;;;;;;;99.50;94.47;;;;;;;;;;5034567;28;20057;-56
2024/02/02 03:29:39;;;;;;;102.03;96.97;;;;;;;;;;5035975;28;20025;-57
2024/02/02 03:32:05;;;;;;;101.75;96.70;;;;;;;;;;5031626;28;20064;-56
2024/02/02 03:34:30;;;;;;;100.97;95.70;;;;;;;;;;5031889;28;20119;-57
2024/02/02 03:36:56;;;;;;;105.90;100.60;;;;;;;;;;5031988;28;20048;-57
2024/02/02 03:39:21;;;;;;;98.20;93.30;;;;;;;;;;5033133;28;20044;-58
2024/02/02 03:41:46;;;;;;;99.30;94.30;;;;;;;;;;5032781;28;20043;-56
2024/02/02 03:44:12;;;;;;;104.18;98.30;;;;;;;;;;5034066;28;20107;-57
2024/02/02 03:46:37;;;;;;;100.78;95.75;;;;;;;;;;5031854;28;20040;-58
2024/02/02 03:49:03;;;;;;;101.75;96.63;;;;;;;;;;5031335;28;20090;-56
2024/02/02 03:51:28;;;;;;;101.53;96.40;;;;;;;;;;5030700;28;20102;-55
2024/02/02 03:53:53;;;;;;;97.38;92.28;;;;;;;;;;5030210;28;20044;-57
2024/02/02 03:56:19;;;;;;;97.75;92.85;;;;;;;;;;5032976;28;20397;-50
2024/02/02 03:58:44;;;;;;;94.00;89.28;;;;;;;;;;5036337;28;20510;-56
2024/02/02 04:01:09;;;;;;;98.68;93.75;;;;;;;;;;5028951;28;20121;-57
2024/02/02 04:03:35;;;;;;;97.45;92.63;;;;;;;;;;5034298;28;20301;-57
2024/02/02 04:06:00;;;;;;;98.68;93.68;;;;;;;;;;5032655;28;20477;-56
2024/02/02 04:08:26;;;;;;;95.25;90.50;;;;;;;;;;5031271;28;20037;-57
2024/02/02 04:10:51;;;;;;;93.05;88.10;;;;;;;;;;5029583;28;20128;-51
2024/02/02 04:13:17;;;;;;;86.00;81.55;;;;;;;;;;5028429;28;20771;-49
2024/02/02 04:15:44;;;;;;;88.97;84.53;;;;;;;;;;5024956;28;20071;-48
2024/02/02 04:18:09;;;;;;;84.30;80.07;;;;;;;;;;5028617;28;20048;-48
2024/02/02 04:20:34;;;;;;;93.07;88.45;;;;;;;;;;5032618;28;20045;-51
2024/02/02 04:23:00;;;;;;;85.13;80.18;;;;;;;;;;5029463;28;20033;-48
2024/02/02 04:25:25;;;;;;;87.10;82.50;;;;;;;;;;5030091;28;20030;-48
2024/02/02 04:27:50;;;;;;;84.63;80.35;;;;;;;;;;5026830;28;20064;-46
2024/02/02 04:30:17;;;;;;;88.47;84.03;;;;;;;;;;5028205;28;20129;-49
2024/02/02 04:32:42;;;;;;;84.57;80.13;;;;;;;;;;5027941;28;20045;-47
2024/02/02 04:35:07;;;;;;;90.90;86.07;;;;;;;;;;5030595;28;20061;-50
2024/02/02 04:37:33;;;;;;;87.95;83.57;;;;;;;;;;5032091;28;20047;-51
2024/02/02 04:39:58;;;;;;;80.90;76.55;;;;;;;;;;5030915;28;20036;-49
2024/02/02 04:42:23;;;;;;;77.30;73.38;;;;;;;;;;5031139;28;20044;-46
2024/02/02 04:44:48;;;;;;;77.70;73.65;;;;;;;;;;5029068;28;20041;-46
2024/02/02 04:47:14;;;;;;;72.28;68.57;;;;;;;;;;5029680;28;20040;-48
2024/02/02 04:49:39;;;;;;;69.25;65.70;;;;;;;;;;5032287;28;20443;-46
2024/02/02 04:52:05;;;;;;;71.78;68.20;;;;;;;;;;5033897;28;20667;-47
2024/02/02 04:54:30;;;;;;;63.03;59.78;;;;;;;;;;5032023;28;20499;-48
2024/02/02 04:56:55;;;;;;;60.92;57.85;;;;;;;;;;5029854;28;20044;-47
2024/02/02 04:59:21;;;;;;;63.65;60.20;;;;;;;;;;5028686;28;20045;-46
2024/02/02 05:01:46;;;;;;;64.95;61.70;;;;;;;;;;5031360;28;20478;-46
2024/02/02 05:04:11;;;;;;;70.78;67.18;;;;;;;;;;5031162;28;20036;-47
2024/02/02 05:06:36;;;;;;;77.28;72.05;;;;;;;;;;5030778;28;20040;-51
2024/02/02 05:09:02;;;;;;;72.45;68.68;;;;;;;;;;5033945;28;20032;-47
2024/02/02 05:11:27;;;;;;;76.05;71.82;;;;;;;;;;5028709;28;20037;-47
2024/02/02 05:13:53;;;;;;;73.32;69.65;;;;;;;;;;5033661;28;20067;-50
2024/02/02 05:16:18;;;;;;;82.13;77.90;;;;;;;;;;5028974;28;20335;-47
2024/02/02 05:18:43;;;;;;;84.55;80.30;;;;;;;;;;5034029;28;20037;-48
2024/02/02 05:21:09;;;;;;;86.10;81.70;;;;;;;;;;5027911;28;20090;-46
2024/02/02 05:23:36;;;;;;;94.43;89.68;;;;;;;;;;5030095;28;20340;-49
2024/02/02 05:26:01;;;;;;;102.72;97.57;;;;;;;;;;5030919;28;20044;-56
2024/02/02 05:28:27;;;;;;;102.47;97.40;;;;;;;;;;5032601;28;20029;-56
2024/02/02 05:30:52;;;;;;;104.53;99.30;;;;;;;;;;5029327;28;20060;-56
2024/02/02 05:33:17;;;;;;;105.20;99.93;;;;;;;;;;5028691;28;20068;-56
2024/02/02 05:35:42;;;;;;;107.57;102.18;;;;;;;;;;5030936;28;20107;-57
2024/02/02 05:38:08;;;;;;;108.95;103.40;;;;;;;;;;5033406;28;20398;-57
2024/02/02 05:40:33;;;;;;;109.82;104.38;;;;;;;;;;5031897;28;20451;-50
2024/02/02 05:43:00;;;;;;;108.07;102.70;;;;;;;;;;5032044;28;20940;-49
2024/02/02 05:45:25;;;;;;;107.20;101.85;;;;;;;;;;5030616;28;20534;-47
2024/02/02 05:47:51;;;;;;;107.63;102.30;;;;;;;;;;5030256;28;20147;-58
2024/02/02 05:50:16;;;;;;;110.90;105.30;;;;;;;;;;5030179;28;20029;-58
2024/02/02 05:52:42;;;;;;;111.88;106.22;;;;;;;;;;5030543;28;20033;-57
2024/02/02 05:55:07;;;;;;;108.93;102.88;;;;;;;;;;5030735;28;20108;-57
2024/02/02 05:57:32;;;;;;;107.63;102.18;;;;;;;;;;5029652;28;20129;-57
2024/02/02 05:59:58;;;;;;;109.13;103.57;;;;;;;;;;5028337;28;20483;-57
2024/02/02 06:02:23;;;;;;;110.35;104.78;;;;;;;;;;5027203;28;20044;-57
2024/02/02 06:04:49;;;;;;;107.82;102.40;;;;;;;;;;5027481;28;20033;-57
2024/02/02 06:07:15;;;;;;;106.07;100.65;;;;;;;;;;5028562;28;20120;-48
2024/02/02 06:09:40;;;;;;;104.85;99.60;;;;;;;;;;5033092;28;20025;-57
2024/02/02 06:12:06;;;;;;;105.22;100.00;;;;;;;;;;5031295;28;20502;-57
2024/02/02 06:14:31;;;;;;;105.03;99.75;;;;;;;;;;5028210;28;20120;-57
2024/02/02 06:16:56;;;;;;;105.95;100.65;;;;;;;;;;5029822;28;20044;-56
2024/02/02 06:19:22;;;;;;;105.25;99.78;;;;;;;;;;5031196;28;20057;-57
2024/02/02 06:21:47;;;;;;;103.13;98.00;;;;;;;;;;5034654;28;20044;-57
2024/02/02 06:24:12;;;;;;;103.63;98.47;;;;;;;;;;5030239;28;20068;-49
2024/02/02 06:26:38;;;;;;;104.32;98.93;;;;;;;;;;5030798;28;20068;-57
2024/02/02 06:29:04;;;;;;;103.00;97.78;;;;;;;;;;5029867;28;20969;-57
2024/02/02 06:31:29;;;;;;;97.90;93.07;;;;;;;;;;5029184;28;20451;-56
2024/02/02 06:33:54;;;;;;;100.57;95.57;;;;;;;;;;5031972;28;20029;-55
2024/02/02 06:36:24;;;;;;;102.00;96.60;;;;;;;;;;5031425;28;20045;-54
2024/02/02 06:38:50;;;;;;;111.10;105.28;;;;;;;;;;5037017;28;20040;-57
2024/02/02 06:41:16;;;;;;;103.45;98.30;;;;;;;;;;5032054;28;20503;-54
2024/02/02 06:43:41;;;;;;;103.90;98.75;;;;;;;;;;5035233;28;20108;-54
2024/02/02 06:46:06;;;;;;;105.10;99.75;;;;;;;;;;5033381;28;20040;-55
2024/02/02 06:48:31;;;;;;;102.20;97.15;;;;;;;;;;5033993;28;20056;-53
2024/02/02 06:50:57;;;;;;;101.90;96.88;;;;;;;;;;5037493;28;20033;-56
2024/02/02 06:53:22;;;;;;;104.78;99.45;;;;;;;;;;5031725;28;20037;-52
2024/02/02 06:55:49;;;;;;;107.38;102.00;;;;;;;;;;5036048;28;20121;-55
2024/02/02 06:58:27;;;;;;;106.95;101.60;;;;;;;;;;5032297;28;20067;-54
2024/02/02 07:00:53;;;;;;;99.95;94.55;;;;;;;;;;5035312;28;20067;-56
2024/02/02 07:03:18;;;;;;;102.95;97.45;;;;;;;;;;5033516;28;20463;-55
2024/02/02 07:05:43;;;;;;;101.47;96.43;;;;;;;;;;5033030;28;20037;-55
2024/02/02 07:08:09;;;;;;;96.63;91.85;;;;;;;;;;5033147;28;20441;-55
2024/02/02 07:10:34;;;;;;;104.45;99.25;;;;;;;;;;5031111;28;20041;-54
2024/02/02 07:13:01;;;;;;;102.78;97.65;;;;;;;;;;5036274;28;20046;-56
2024/02/02 07:15:30;;;;;;;99.78;94.70;;;;;;;;;;5030297;28;20628;-54
2024/02/02 07:17:56;;;;;;;103.80;97.63;;;;;;;;;;5029397;28;20167;-54
2024/02/02 07:20:21;;;;;;;103.32;98.15;;;;;;;;;;5030589;28;20178;-48
2024/02/02 07:22:47;;;;;;;107.05;101.07;;;;;;;;;;5032457;28;20112;-49
2024/02/02 07:25:15;;;;;;;107.50;101.90;;;;;;;;;;5034356;28;20045;-56
2024/02/02 07:27:47;;;;;;;106.22;100.95;;;;;;;;;;5030496;28;20063;-56
2024/02/02 07:30:12;;;;;;;;;;;;;;;;;;5031599;28;20099;-54
2024/02/02 07:32:39;;;;;;;85.13;80.78;;;;;;;;;;5033445;28;19925;-55
2024/02/02 07:35:27;;;;;;;94.10;89.35;;;;;;;;;;5032021;28;20029;-49
2024/02/02 07:37:52;;;;;;;95.72;90.85;;;;;;;;;;5031965;28;20132;-54
2024/02/02 07:40:30;;;;;;;101.57;96.32;;;;;;;;;;5030851;28;20124;-49
2024/02/02 07:42:58;;;;;;;100.13;94.47;;;;;;;;;;5032248;28;20435;-50
2024/02/02 07:45:24;;;;;;;109.95;104.50;;;;;;;;;;5028217;28;20111;-55
2024/02/02 07:47:49;;;;;;;116.78;110.97;;;;;;;;;;5032114;28;20041;-56
2024/02/02 07:50:14;;;;;;;110.97;105.45;;;;;;;;;;5035401;28;20033;-54
2024/02/02 07:52:40;;;;;;;116.38;110.38;;;;;;;;;;5031351;28;20034;-54
2024/02/02 07:55:05;;;;;;;124.55;117.68;;;;;;;;;;5034859;28;20037;-52
2024/02/02 07:57:31;;;;;;;109.88;104.45;;;;;;;;;;5031177;28;20080;-48
2024/02/02 07:59:56;;;;;;;116.45;110.55;;;;;;;;;;5032524;28;20044;-47
2024/02/02 08:02:23;;;;;;;119.65;113.60;;;;;;;;;;5035505;28;20471;-51
2024/02/02 08:04:48;;;;;;;115.97;110.22;;;;;;;;;;5031595;28;20052;-49
2024/02/02 08:07:13;;;;;;;118.95;113.05;;;;;;;;;;5033039;28;20025;-50
2024/02/02 08:09:39;;;;;;;116.68;110.88;;;;;;;;;;5032430;28;20414;-53
2024/02/02 08:12:04;;;;;;;116.32;110.53;;;;;;;;;;5033338;28;20045;-49
2024/02/02 08:14:30;;;;;;;124.60;118.07;;;;;;;;;;5032463;28;20047;-53
2024/02/02 08:16:55;;;;;;;122.70;116.57;;;;;;;;;;5033657;28;20036;-53
2024/02/02 08:19:20;;;;;;;123.28;117.15;;;;;;;;;;5033352;28;20037;-52
2024/02/02 08:21:46;;;;;;;119.82;113.80;;;;;;;;;;5031568;28;20034;-55
2024/02/02 08:24:11;;;;;;;123.55;117.35;;;;;;;;;;5031418;28;20064;-54
2024/02/02 08:26:36;;;;;;;122.40;116.25;;;;;;;;;;5032120;28;20037;-56
2024/02/02 08:29:02;;;;;;;121.70;115.30;;;;;;;;;;5028801;28;20129;-55
2024/02/02 08:31:27;;;;;;;126.43;120.15;;;;;;;;;;5032274;28;20037;-51
2024/02/02 08:33:52;;;;;;;126.35;119.93;;;;;;;;;;5031063;28;20068;-50
2024/02/02 08:36:18;;;;;;;126.25;119.78;;;;;;;;;;5030496;28;20604;-52
2024/02/02 08:38:43;;;;;;;133.52;126.63;;;;;;;;;;5029527;28;20033;-51
2024/02/02 08:41:10;;;;;;;129.10;122.57;;;;;;;;;;5031046;28;20119;-50
2024/02/02 08:43:36;;;;;;;137.70;130.88;;;;;;;;;;5031087;28;20536;-49
2024/02/02 08:46:12;;;;;;;132.88;126.28;;;;;;;;;;5029232;28;20045;-48
2024/02/02 08:48:45;;;;;;;131.20;124.35;;;;;;;;;;5033951;28;20041;-48
2024/02/02 08:51:42;;;;;;;124.30;117.95;;;;;;;;;;5034738;28;20028;-47
2024/02/02 08:54:16;;;;;;;118.15;112.10;;;;;;;;;;5031723;28;20041;-51
2024/02/02 08:56:45;;;;;;;126.05;119.80;;;;;;;;;;5029909;28;20068;-53
2024/02/02 08:59:32;;;;;;;118.22;112.32;;;;;;;;;;5030897;28;20049;-50
2024/02/02 09:01:58;;;;;;;125.93;119.65;;;;;;;;;;5031735;28;20024;-51
2024/02/02 09:04:42;;;;;;;128.10;121.53;;;;;;;;;;5031377;28;20044;-50
2024/02/02 09:07:13;;;;;;;131.35;124.63;;;;;;;;;;5031493;28;20083;-51
2024/02/02 09:09:40;;;;;;;128.82;122.43;;;;;;;;;;5030239;28;20548;-56
2024/02/02 09:12:06;;;;;;;135.52;128.57;;;;;;;;;;5031109;28;20049;-56
2024/02/02 09:14:31;;;;;;;135.38;128.55;;;;;;;;;;5028570;28;20044;-56
2024/02/02 09:16:57;;;;;;;138.32;131.05;;;;;;;;;;5030435;28;20030;-49
2024/02/02 09:19:30;;;;;;;132.32;125.22;;;;;;;;;;5030856;28;20029;-56
2024/02/02 09:22:06;;;;;;;127.05;120.60;;;;;;;;;;5033272;28;20120;-53
2024/02/02 09:24:47;;;;;;;120.70;113.93;;;;;;;;;;5033371;28;20490;-56
2024/02/02 09:27:39;;;;;;;125.10;117.93;;;;;;;;;;5028497;28;20123;-54
2024/02/02 09:30:11;;;;;;;124.65;118.43;;;;;;;;;;5034683;28;20206;-50
2024/02/02 09:32:36;;;;;;;120.43;114.35;;;;;;;;;;5034001;28;20386;-51
2024/02/02 09:35:22;;;;;;;113.68;107.65;;;;;;;;;;5029542;28;20037;-51
2024/02/02 09:37:50;;;;;;;113.85;107.68;;;;;;;;;;5027676;28;20044;-57
2024/02/02 09:40:37;;;;;;;114.20;108.50;;;;;;;;;;5030677;28;20045;-54
2024/02/02 09:43:20;;;;;;;98.50;93.57;;;;;;;;;;5032749;28;20529;-47
2024/02/02 09:46:41;;;;;;;86.30;81.90;;;;;;;;;;5031319;28;20052;-56
2024/02/02 09:49:42;;;;;;;74.28;70.45;;;;;;;;;;5029683;28;20107;-50
2024/02/02 09:52:55;;;;;;;69.90;66.23;;;;;;;;;;5030964;28;20510;-57
2024/02/02 09:55:35;;;;;;;63.00;59.80;;;;;;;;;;5026191;28;20041;-48
2024/02/02 09:58:10;;;;;;;61.28;58.00;;;;;;;;;;5031090;28;20037;-57
2024/02/02 10:00:50;;;;;;;44.10;41.80;;;;;;;;;;5027765;28;20059;-57
2024/02/02 10:03:24;;;;;;;41.75;38.97;;;;;;;;;;5030047;28;20032;-56
2024/02/02 10:06:08;;;;;;;37.70;35.72;;;;;;;;;;5025800;28;20037;-56
2024/02/02 10:08:50;;;;;;;30.20;28.60;;;;;;;;;;5029641;28;20053;-57
2024/02/02 10:12:02;;;;;;;25.60;23.90;;;;;;;;;;5034645;28;20052;-57
2024/02/02 10:14:50;;;;;;;27.05;25.35;;;;;;;;;;5030845;28;20179;-60
2024/02/02 10:17:42;;;;;;;27.23;25.27;;;;;;;;;;5036973;28;20040;-55
2024/02/02 10:20:07;;;;;;;24.98;23.55;;;;;;;;;;5032146;28;20395;-60
2024/02/02 10:22:51;;;;;;;24.95;23.45;;;;;;;;;;5033960;28;20067;-60
2024/02/02 10:25:46;;;;;;;27.27;24.23;;;;;;;;;;5031452;28;20047;-52
2024/02/02 10:28:36;;;;;;;25.38;23.95;;;;;;;;;;5032264;28;20029;-52
2024/02/02 10:31:10;;;;;;;27.65;26.00;;;;;;;;;;5033683;28;20251;-52
2024/02/02 10:33:57;;;;;;;24.25;22.85;;;;;;;;;;5033568;28;20368;-58
2024/02/02 10:37:01;;;;;;;26.80;25.20;;;;;;;;;;5032878;28;20068;-58
2024/02/02 10:39:45;;;;;;;28.92;27.13;;;;;;;;;;5032084;28;20041;-59
2024/02/02 10:42:24;;;;;;;26.98;25.35;;;;;;;;;;5032996;28;20115;-53
2024/02/02 10:45:01;;;;;;;26.52;24.90;;;;;;;;;;5033381;28;20557;-55
2024/02/02 10:47:47;;;;;;;26.92;25.30;;;;;;;;;;5033270;28;20045;-59
2024/02/02 10:50:27;;;;;;;27.30;25.80;;;;;;;;;;5035417;28;20169;-59
2024/02/02 10:53:16;;;;;;;30.63;28.83;;;;;;;;;;5035700;28;20033;-52
2024/02/02 10:56:00;;;;;;;37.22;35.13;;;;;;;;;;5033109;28;20067;-52
2024/02/02 10:58:44;;;;;;;34.33;32.53;;;;;;;;;;5035338;28;20464;-58
2024/02/02 11:01:21;;;;;;;39.05;36.45;;;;;;;;;;5033697;28;20165;-53
2024/02/02 11:04:09;;;;;;;41.72;39.33;;;;;;;;;;5029539;28;20441;-51
2024/02/02 11:07:11;;;;;;;44.75;42.35;;;;;;;;;;5033249;28;20045;-55
2024/02/02 11:09:53;;;;;;;47.15;44.72;;;;;;;;;;5031024;28;20085;-49
2024/02/02 11:12:33;;;;;;;50.85;48.20;;;;;;;;;;5032827;28;20140;-54
2024/02/02 11:15:04;;;;;;;51.50;48.90;;;;;;;;;;5031174;28;20041;-58
2024/02/02 11:17:33;;;;;;;38.33;36.30;;;;;;;;;;5034742;28;20051;-58
2024/02/02 11:20:23;;;;;;;37.90;35.83;;;;;;;;;;5031971;28;20037;-54
2024/02/02 11:23:28;;;;;;;37.28;35.13;;;;;;;;;;5032037;28;20044;-53
2024/02/02 11:26:24;;;;;;;38.50;36.10;;;;;;;;;;5032620;28;20060;-52
2024/02/02 11:29:12;;;;;;;41.70;39.42;;;;;;;;;;5031074;28;20041;-52
2024/02/02 11:31:56;;;;;;;42.22;39.97;;;;;;;;;;5030595;28;20061;-58
2024/02/02 11:34:42;;;;;;;46.75;44.22;;;;;;;;;;5030779;28;20530;-58
2024/02/02 11:37:24;;;;;;;42.85;40.65;;;;;;;;;;5032179;28;20532;-53
2024/02/02 11:39:59;;;;;;;45.90;43.45;;;;;;;;;;5032546;28;20075;-54
2024/02/02 11:42:26;;;;;;;48.72;46.25;;;;;;;;;;5033808;28;21247;-52
2024/02/02 11:44:54;;;;;;;48.17;45.60;;;;;;;;;;5032352;28;20112;-55
2024/02/02 11:47:22;;;;;;;52.30;49.65;;;;;;;;;;5035315;28;20109;-50
2024/02/02 11:49:51;;;;;;;42.95;40.65;;;;;;;;;;5032436;28;20521;-60
2024/02/02 11:52:31;;;;;;;43.72;41.30;;;;;;;;;;5035100;28;20095;-60
2024/02/02 11:55:07;;;;;;;44.20;41.75;;;;;;;;;;5029305;28;20036;-60
2024/02/02 11:57:38;;;;;;;45.70;43.35;;;;;;;;;;5032184;28;20128;-60
2024/02/02 12:00:08;;;;;;;46.92;44.33;;;;;;;;;;5032314;28;20038;-60
2024/02/02 12:03:15;;;;;;;48.97;46.17;;;;;;;;;;5031255;28;20590;-60
2024/02/02 12:05:54;;;;;;;45.03;42.65;;;;;;;;;;5023147;28;20049;-62
2024/02/02 12:08:30;;;;;;;47.60;44.85;;;;;;;;;;5030713;28;20064;-61
2024/02/02 12:10:57;;;;;;;45.85;43.38;;;;;;;;;;5029095;28;20470;-59
2024/02/02 12:13:30;;;;;;;44.85;42.05;;;;;;;;;;5032374;28;20029;-59
2024/02/02 12:15:56;;;;;;;48.65;46.17;;;;;;;;;;5021109;28;20036;-60
2024/02/02 12:18:21;;;;;;;46.72;44.33;;;;;;;;;;5029554;28;20091;-60
2024/02/02 12:20:47;;;;;;;45.08;42.80;;;;;;;;;;5031578;28;20033;-61
2024/02/02 12:23:12;;;;;;;45.72;42.92;;;;;;;;;;5030721;28;20040;-61
2024/02/02 12:25:38;;;;;;;43.53;41.33;;;;;;;;;;5019944;28;20190;-59
2024/02/02 12:28:07;;;;;;;43.53;41.28;;;;;;;;;;5028216;28;20037;-60
2024/02/02 12:30:33;;;;;;;40.67;38.58;;;;;;;;;;5030307;28;20140;-59
2024/02/02 12:32:58;;;;;;;42.60;40.40;;;;;;;;;;5028607;28;20649;-60
2024/02/02 12:35:25;;;;;;;42.72;40.53;;;;;;;;;;5029468;28;20125;-60
2024/02/02 12:37:51;;;;;;;38.83;36.72;;;;;;;;;;5031250;28;20359;-61
2024/02/02 12:40:19;;;;;;;38.53;36.03;;;;;;;;;;5031000;28;20033;-60
2024/02/02 12:42:47;;;;;;;35.65;33.75;;;;;;;;;;5029818;28;20432;-60
2024/02/02 12:45:13;;;;;;;36.70;34.75;;;;;;;;;;5028877;28;20102;-59
2024/02/02 12:47:40;;;;;;;34.15;32.35;;;;;;;;;;5030738;28;20029;-61
2024/02/02 12:50:14;;;;;;;36.92;34.88;;;;;;;;;;5032383;28;20059;-60
2024/02/02 12:52:42;;;;;;;32.42;30.73;;;;;;;;;;5029280;28;20044;-59
2024/02/02 12:55:08;;;;;;;28.52;26.90;;;;;;;;;;5031218;28;20044;-59
2024/02/02 12:57:36;;;;;;;28.25;26.65;;;;;;;;;;5031687;28;20033;-59
2024/02/02 13:00:03;;;;;;;26.77;25.33;;;;;;;;;;5029024;28;20033;-59
2024/02/02 13:02:28;;;;;;;30.02;28.38;;;;;;;;;;5029866;28;20063;-59
2024/02/02 13:04:54;;;;;;;27.80;26.30;;;;;;;;;;5030532;28;20605;-59
2024/02/02 13:07:19;;;;;;;29.27;27.67;;;;;;;;;;5030543;28;20068;-61
2024/02/02 13:09:51;;;;;;;27.98;26.38;;;;;;;;;;5030949;28;20041;-59
2024/02/02 13:12:29;;;;;;;27.88;26.33;;;;;;;;;;5030285;28;20045;-60
2024/02/02 13:15:09;;;;;;;27.67;26.10;;;;;;;;;;5028443;28;20040;-60
2024/02/02 13:17:37;;;;;;;27.00;25.55;;;;;;;;;;5033492;28;20037;-60
2024/02/02 13:20:11;;;;;;;25.58;24.17;;;;;;;;;;5033265;28;20102;-60
2024/02/02 13:22:37;;;;;;;27.95;26.48;;;;;;;;;;5032409;28;20123;-59
2024/02/02 13:25:03;;;;;;;26.23;24.73;;;;;;;;;;5029863;28;20124;-60
2024/02/02 13:27:29;;;;;;;24.42;22.90;;;;;;;;;;5031963;28;20055;-60
2024/02/02 13:29:57;;;;;;;26.05;24.65;;;;;;;;;;5029377;28;20403;-60
2024/02/02 13:32:26;;;;;;;26.92;25.48;;;;;;;;;;5029721;28;20044;-59
2024/02/02 13:34:54;;;;;;;24.73;23.42;;;;;;;;;;5031222;28;20025;-60
2024/02/02 13:37:33;;;;;;;25.63;24.23;;;;;;;;;;5033926;28;20061;-60
2024/02/02 13:39:59;;;;;;;22.80;21.60;;;;;;;;;;5028487;28;20129;-60
2024/02/02 13:42:25;;;;;;;23.90;22.60;;;;;;;;;;5035254;28;20124;-60
2024/02/02 13:44:52;;;;;;;21.70;20.50;;;;;;;;;;5032995;28;20037;-60
2024/02/02 13:47:20;;;;;;;22.95;21.75;;;;;;;;;;5038067;28;20506;-61
2024/02/02 13:49:52;;;;;;;25.10;23.30;;;;;;;;;;5037845;28;20029;-61
2024/02/02 13:52:18;;;;;;;22.05;20.75;;;;;;;;;;5033132;28;20475;-61
2024/02/02 13:54:43;;;;;;;22.30;20.98;;;;;;;;;;5040736;28;20149;-61
2024/02/02 13:57:12;;;;;;;24.98;23.58;;;;;;;;;;5031119;28;20069;-61
2024/02/02 13:59:38;;;;;;;23.20;21.92;;;;;;;;;;5036763;28;20128;-61
2024/02/02 14:02:04;;;;;;;21.92;20.73;;;;;;;;;;5034280;28;20132;-60
2024/02/02 14:04:29;;;;;;;23.48;21.63;;;;;;;;;;5031519;28;20037;-61
2024/02/02 14:06:55;;;;;;;22.67;21.42;;;;;;;;;;5036464;28;20037;-61
2024/02/02 14:09:24;;;;;;;25.02;23.73;;;;;;;;;;5037267;28;20366;-61
2024/02/02 14:11:49;;;;;;;23.30;22.00;;;;;;;;;;5036452;28;20033;-61
2024/02/02 14:14:16;;;;;;;25.02;23.50;;;;;;;;;;5037606;28;20777;-61
2024/02/02 14:16:42;;;;;;;23.55;22.25;;;;;;;;;;5033762;28;20470;-61
2024/02/02 14:19:08;;;;;;;23.90;22.55;;;;;;;;;;5032900;28;20029;-60
2024/02/02 14:21:37;;;;;;;22.50;21.20;;;;;;;;;;5033525;28;20033;-60
2024/02/02 14:24:11;;;;;;;23.05;21.75;;;;;;;;;;5035020;28;20045;-61